sensor_id;sensor_type;location;lat;lon;timestamp;pressure;altitude;pressure_sealevel;temperature;humidity
81835;BME280;71272;52.166;4.498;2023-07-28T00:00:36;100532.47;;;17.61;100.00
81835;BME280;71272;52.166;4.498;2023-07-28T00:03:01;100536.31;;;17.67;100.00
81835;BME280;71272;52.166;4.498;2023-07-28T00:05:26;100529.06;;;17.66;100.00
81835;BME280;71272;52.166;4.498;2023-07-28T00:07:52;100519.75;;;17.66;100.00
81835;BME280;71272;52.166;4.498;2023-07-28T00:10:17;100521.47;;;17.63;100.00
81835;BME280;71272;52.166;4.498;2023-07-28T00:12:43;100523.81;;;17.65;100.00
81835;BME280;71272;52.166;4.498;2023-07-28T00:15:08;100521.00;;;17.65;100.00
81835;BME280;71272;52.166;4.498;2023-07-28T00:17:34;100510.47;;;17.65;100.00
81835;BME280;71272;52.166;4.498;2023-07-28T00:19:59;100519.97;;;17.71;100.00
81835;BME280;71272;52.166;4.498;2023-07-28T00:22:25;100527.69;;;17.71;100.00
81835;BME280;71272;52.166;4.498;2023-07-28T00:24:50;100531.88;;;17.66;100.00
81835;BME280;71272;52.166;4.498;2023-07-28T00:27:15;100530.63;;;17.67;100.00
81835;BME280;71272;52.166;4.498;2023-07-28T00:29:41;100525.88;;;17.64;100.00
81835;BME280;71272;52.166;4.498;2023-07-28T00:32:07;100526.22;;;17.66;100.00
81835;BME280;71272;52.166;4.498;2023-07-28T00:34:32;100527.13;;;17.63;100.00
81835;BME280;71272;52.166;4.498;2023-07-28T00:36:57;100520.13;;;17.55;100.00
81835;BME280;71272;52.166;4.498;2023-07-28T00:39:23;100518.47;;;17.45;100.00
81835;BME280;71272;52.166;4.498;2023-07-28T00:41:48;100520.84;;;17.46;100.00
81835;BME280;71272;52.166;4.498;2023-07-28T00:44:13;100528.88;;;17.48;100.00
81835;BME280;71272;52.166;4.498;2023-07-28T00:46:41;100524.91;;;17.45;100.00
81835;BME280;71272;52.166;4.498;2023-07-28T00:49:06;100511.81;;;17.39;100.00
81835;BME280;71272;52.166;4.498;2023-07-28T00:51:31;100519.25;;;17.45;100.00
81835;BME280;71272;52.166;4.498;2023-07-28T00:53:57;100527.31;;;17.47;100.00
81835;BME280;71272;52.166;4.498;2023-07-28T00:56:24;100520.03;;;17.46;100.00
81835;BME280;71272;52.166;4.498;2023-07-28T00:58:50;100520.38;;;17.48;100.00
81835;BME280;71272;52.166;4.498;2023-07-28T01:01:16;100508.59;;;17.49;100.00
81835;BME280;71272;52.166;4.498;2023-07-28T01:03:42;100517.88;;;17.50;100.00
81835;BME280;71272;52.166;4.498;2023-07-28T01:06:27;100520.38;;;17.48;100.00
81835;BME280;71272;52.166;4.498;2023-07-28T01:09:12;100517.31;;;17.55;100.00
81835;BME280;71272;52.166;4.498;2023-07-28T01:11:55;100516.97;;;17.53;100.00
81835;BME280;71272;52.166;4.498;2023-07-28T01:14:21;100513.69;;;17.55;100.00
81835;BME280;71272;52.166;4.498;2023-07-28T01:16:46;100518.88;;;17.56;100.00
81835;BME280;71272;52.166;4.498;2023-07-28T01:19:12;100515.69;;;17.54;100.00
81835;BME280;71272;52.166;4.498;2023-07-28T01:21:39;100515.13;;;17.59;100.00
81835;BME280;71272;52.166;4.498;2023-07-28T01:24:35;100530.91;;;17.60;100.00
81835;BME280;71272;52.166;4.498;2023-07-28T01:27:03;100527.59;;;17.62;100.00
81835;BME280;71272;52.166;4.498;2023-07-28T01:29:29;100520.34;;;17.61;100.00
81835;BME280;71272;52.166;4.498;2023-07-28T01:31:54;100522.59;;;17.66;100.00
81835;BME280;71272;52.166;4.498;2023-07-28T01:34:19;100520.22;;;17.64;100.00
81835;BME280;71272;52.166;4.498;2023-07-28T01:36:45;100531.56;;;17.64;100.00
81835;BME280;71272;52.166;4.498;2023-07-28T01:39:10;100526.34;;;17.63;100.00
81835;BME280;71272;52.166;4.498;2023-07-28T01:41:35;100517.84;;;17.63;100.00
81835;BME280;71272;52.166;4.498;2023-07-28T01:44:01;100518.34;;;17.70;100.00
81835;BME280;71272;52.166;4.498;2023-07-28T01:46:27;100520.09;;;17.68;100.00
81835;BME280;71272;52.166;4.498;2023-07-28T01:48:52;100523.72;;;17.68;100.00
81835;BME280;71272;52.166;4.498;2023-07-28T01:51:18;100525.28;;;17.69;100.00
81835;BME280;71272;52.166;4.498;2023-07-28T01:53:43;100519.75;;;17.66;100.00
81835;BME280;71272;52.166;4.498;2023-07-28T01:56:08;100530.38;;;17.74;100.00
81835;BME280;71272;52.166;4.498;2023-07-28T01:58:34;100530.19;;;17.69;100.00
81835;BME280;71272;52.166;4.498;2023-07-28T02:00:59;100533.00;;;17.69;100.00
81835;BME280;71272;52.166;4.498;2023-07-28T02:03:26;100521.66;;;17.69;100.00
81835;BME280;71272;52.166;4.498;2023-07-28T02:05:51;100522.13;;;17.67;100.00
81835;BME280;71272;52.166;4.498;2023-07-28T02:08:17;100536.31;;;17.67;100.00
81835;BME280;71272;52.166;4.498;2023-07-28T02:10:44;100532.69;;;17.67;100.00
81835;BME280;71272;52.166;4.498;2023-07-28T02:13:09;100525.78;;;17.68;100.00
81835;BME280;71272;52.166;4.498;2023-07-28T02:15:35;100528.81;;;17.73;100.00
81835;BME280;71272;52.166;4.498;2023-07-28T02:18:00;100528.22;;;17.79;100.00
81835;BME280;71272;52.166;4.498;2023-07-28T02:20:25;100526.28;;;17.75;100.00
81835;BME280;71272;52.166;4.498;2023-07-28T02:22:51;100523.13;;;17.73;100.00
81835;BME280;71272;52.166;4.498;2023-07-28T02:25:16;100524.16;;;17.80;100.00
81835;BME280;71272;52.166;4.498;2023-07-28T02:27:41;100528.22;;;17.79;100.00
81835;BME280;71272;52.166;4.498;2023-07-28T02:30:07;100529.81;;;17.80;100.00
81835;BME280;71272;52.166;4.498;2023-07-28T02:32:32;100520.59;;;17.75;100.00
81835;BME280;71272;52.166;4.498;2023-07-28T02:34:58;100521.88;;;17.74;100.00
81835;BME280;71272;52.166;4.498;2023-07-28T02:37:24;100534.00;;;17.75;100.00
81835;BME280;71272;52.166;4.498;2023-07-28T02:39:50;100515.75;;;17.76;100.00
81835;BME280;71272;52.166;4.498;2023-07-28T02:42:15;100521.19;;;17.70;100.00
81835;BME280;71272;52.166;4.498;2023-07-28T02:44:40;100524.84;;;17.71;100.00
81835;BME280;71272;52.166;4.498;2023-07-28T02:47:06;100528.13;;;17.69;100.00
81835;BME280;71272;52.166;4.498;2023-07-28T02:49:32;100529.84;;;17.67;100.00
81835;BME280;71272;52.166;4.498;2023-07-28T02:51:57;100530.91;;;17.60;100.00
81835;BME280;71272;52.166;4.498;2023-07-28T02:54:22;100527.59;;;17.62;100.00
81835;BME280;71272;52.166;4.498;2023-07-28T02:56:50;100540.06;;;17.64;100.00
81835;BME280;71272;52.166;4.498;2023-07-28T02:59:15;100537.91;;;17.68;100.00
81835;BME280;71272;52.166;4.498;2023-07-28T03:01:41;100542.44;;;17.66;100.00
81835;BME280;71272;52.166;4.498;2023-07-28T03:04:06;100544.03;;;17.67;100.00
81835;BME280;71272;52.166;4.498;2023-07-28T03:06:31;100540.06;;;17.64;100.00
81835;BME280;71272;52.166;4.498;2023-07-28T03:08:58;100546.06;;;17.66;100.00
81835;BME280;71272;52.166;4.498;2023-07-28T03:11:23;100541.66;;;17.65;100.00
81835;BME280;71272;52.166;4.498;2023-07-28T03:13:49;100542.88;;;17.64;100.00
81835;BME280;71272;52.166;4.498;2023-07-28T03:16:14;100546.72;;;17.70;100.00
81835;BME280;71272;52.166;4.498;2023-07-28T03:18:39;100548.19;;;17.75;100.00
81835;BME280;71272;52.166;4.498;2023-07-28T03:21:05;100549.31;;;17.78;100.00
81835;BME280;71272;52.166;4.498;2023-07-28T03:23:30;100549.31;;;17.78;100.00
81835;BME280;71272;52.166;4.498;2023-07-28T03:25:55;100539.81;;;17.71;100.00
81835;BME280;71272;52.166;4.498;2023-07-28T03:28:21;100557.72;;;17.81;100.00
81835;BME280;71272;52.166;4.498;2023-07-28T03:30:46;100540.47;;;17.75;100.00
81835;BME280;71272;52.166;4.498;2023-07-28T03:33:11;100549.69;;;17.80;100.00
81835;BME280;71272;52.166;4.498;2023-07-28T03:35:37;100548.97;;;17.75;100.00
81835;BME280;71272;52.166;4.498;2023-07-28T03:38:02;100544.91;;;17.77;100.00
81835;BME280;71272;52.166;4.498;2023-07-28T03:40:28;100560.88;;;17.83;100.00
81835;BME280;71272;52.166;4.498;2023-07-28T03:42:53;100556.69;;;17.75;100.00
81835;BME280;71272;52.166;4.498;2023-07-28T03:45:19;100565.09;;;17.79;100.00
81835;BME280;71272;52.166;4.498;2023-07-28T03:47:44;100570.19;;;17.84;100.00
81835;BME280;71272;52.166;4.498;2023-07-28T03:50:09;100576.34;;;17.82;100.00
81835;BME280;71272;52.166;4.498;2023-07-28T03:52:35;100570.31;;;17.80;100.00
81835;BME280;71272;52.166;4.498;2023-07-28T03:55:00;100567.25;;;17.74;100.00
81835;BME280;71272;52.166;4.498;2023-07-28T03:57:25;100563.97;;;17.76;100.00
81835;BME280;71272;52.166;4.498;2023-07-28T03:59:51;100572.38;;;17.80;100.00
81835;BME280;71272;52.166;4.498;2023-07-28T04:02:16;100577.13;;;17.83;100.00
81835;BME280;71272;52.166;4.498;2023-07-28T04:04:42;100567.94;;;17.79;100.00
81835;BME280;71272;52.166;4.498;2023-07-28T04:07:07;100574.16;;;17.86;100.00
81835;BME280;71272;52.166;4.498;2023-07-28T04:09:32;100564.50;;;17.84;100.00
81835;BME280;71272;52.166;4.498;2023-07-28T04:11:58;100582.22;;;17.88;100.00
81835;BME280;71272;52.166;4.498;2023-07-28T04:14:23;100582.56;;;17.90;100.00
81835;BME280;71272;52.166;4.498;2023-07-28T04:16:48;100577.91;;;17.83;100.00
81835;BME280;71272;52.166;4.498;2023-07-28T04:19:13;100580.31;;;17.85;100.00
81835;BME280;71272;52.166;4.498;2023-07-28T04:21:40;100568.16;;;17.84;100.00
81835;BME280;71272;52.166;4.498;2023-07-28T04:24:07;100559.53;;;17.75;100.00
81835;BME280;71272;52.166;4.498;2023-07-28T04:26:33;100579.63;;;17.81;100.00
81835;BME280;71272;52.166;4.498;2023-07-28T04:28:58;100576.78;;;17.81;100.00
81835;BME280;71272;52.166;4.498;2023-07-28T04:31:24;100581.22;;;17.82;100.00
81835;BME280;71272;52.166;4.498;2023-07-28T04:33:49;100573.94;;;17.81;100.00
81835;BME280;71272;52.166;4.498;2023-07-28T04:36:15;100570.66;;;17.82;100.00
81835;BME280;71272;52.166;4.498;2023-07-28T04:38:41;100585.28;;;17.81;100.00
81835;BME280;71272;52.166;4.498;2023-07-28T04:41:06;100585.63;;;17.83;100.00
81835;BME280;71272;52.166;4.498;2023-07-28T04:43:31;100576.34;;;17.82;100.00
81835;BME280;71272;52.166;4.498;2023-07-28T04:45:57;100571.13;;;17.81;100.00
81835;BME280;71272;52.166;4.498;2023-07-28T04:48:22;100580.31;;;17.85;100.00
81835;BME280;71272;52.166;4.498;2023-07-28T04:50:47;100580.03;;;17.92;100.00
81835;BME280;71272;52.166;4.498;2023-07-28T04:53:13;100565.34;;;17.84;100.00
81835;BME280;71272;52.166;4.498;2023-07-28T04:55:38;100584.13;;;17.91;100.00
81835;BME280;71272;52.166;4.498;2023-07-28T04:58:04;100578.00;;;17.92;100.00
81835;BME280;71272;52.166;4.498;2023-07-28T05:00:29;100569.59;;;17.89;100.00
81835;BME280;71272;52.166;4.498;2023-07-28T05:02:54;100589.66;;;17.94;100.00
81835;BME280;71272;52.166;4.498;2023-07-28T05:05:19;100589.56;;;17.98;100.00
81835;BME280;71272;52.166;4.498;2023-07-28T05:07:45;100581.50;;;17.96;100.00
81835;BME280;71272;52.166;4.498;2023-07-28T05:10:10;100585.00;;;18.01;100.00
81835;BME280;71272;52.166;4.498;2023-07-28T05:12:36;100594.63;;;18.03;100.00
81835;BME280;71272;52.166;4.498;2023-07-28T05:15:01;100583.59;;;18.05;100.00
81835;BME280;71272;52.166;4.498;2023-07-28T05:17:26;100588.34;;;18.08;100.00
81835;BME280;71272;52.166;4.498;2023-07-28T05:19:52;100590.34;;;17.99;100.00
81835;BME280;71272;52.166;4.498;2023-07-28T05:22:17;100591.66;;;18.07;100.00
81835;BME280;71272;52.166;4.498;2023-07-28T05:24:43;100583.25;;;18.03;100.00
81835;BME280;71272;52.166;4.498;2023-07-28T05:27:11;100605.59;;;18.14;100.00
81835;BME280;71272;52.166;4.498;2023-07-28T05:29:37;100598.56;;;18.06;100.00
81835;BME280;71272;52.166;4.498;2023-07-28T05:32:03;100604.06;;;18.00;100.00
81835;BME280;71272;52.166;4.498;2023-07-28T05:34:29;100607.78;;;18.10;100.00
81835;BME280;71272;52.166;4.498;2023-07-28T05:36:54;100599.41;;;18.06;100.00
81835;BME280;71272;52.166;4.498;2023-07-28T05:39:20;100594.03;;;18.08;100.00
81835;BME280;71272;52.166;4.498;2023-07-28T05:41:45;100602.09;;;18.10;100.00
81835;BME280;71272;52.166;4.498;2023-07-28T05:44:10;100606.25;;;18.18;100.00
81835;BME280;71272;52.166;4.498;2023-07-28T05:46:36;100612.28;;;18.20;100.00
81835;BME280;71272;52.166;4.498;2023-07-28T05:49:01;100605.91;;;18.16;100.00
81835;BME280;71272;52.166;4.498;2023-07-28T05:51:27;100624.94;;;18.28;100.00
81835;BME280;71272;52.166;4.498;2023-07-28T05:53:52;100614.97;;;18.24;100.00
81835;BME280;71272;52.166;4.498;2023-07-28T05:56:17;100613.91;;;18.30;100.00
81835;BME280;71272;52.166;4.498;2023-07-28T05:58:45;100617.88;;;18.33;100.00
81835;BME280;71272;52.166;4.498;2023-07-28T06:01:10;100614.78;;;18.40;100.00
81835;BME280;71272;52.166;4.498;2023-07-28T06:03:36;100617.28;;;18.38;100.00
81835;BME280;71272;52.166;4.498;2023-07-28T06:06:01;100617.16;;;18.41;99.52
81835;BME280;71272;52.166;4.498;2023-07-28T06:08:27;100619.19;;;18.41;100.00
81835;BME280;71272;52.166;4.498;2023-07-28T06:10:53;100625.88;;;18.47;100.00
81835;BME280;71272;52.166;4.498;2023-07-28T06:13:18;100625.06;;;18.47;99.84
81835;BME280;71272;52.166;4.498;2023-07-28T06:15:43;100624.94;;;18.50;99.41
81835;BME280;71272;52.166;4.498;2023-07-28T06:18:09;100626.50;;;18.51;100.00
81835;BME280;71272;52.166;4.498;2023-07-28T06:20:34;100628.09;;;18.52;99.63
81835;BME280;71272;52.166;4.498;2023-07-28T06:23:00;100631.84;;;18.49;99.65
81835;BME280;71272;52.166;4.498;2023-07-28T06:25:26;100634.06;;;18.45;100.00
81835;BME280;71272;52.166;4.498;2023-07-28T06:27:51;100622.09;;;18.50;99.13
81835;BME280;71272;52.166;4.498;2023-07-28T06:30:16;100639.59;;;18.49;99.38
81835;BME280;71272;52.166;4.498;2023-07-28T06:32:42;100646.88;;;18.50;99.00
81835;BME280;71272;52.166;4.498;2023-07-28T06:35:07;100654.28;;;18.47;99.40
81835;BME280;71272;52.166;4.498;2023-07-28T06:37:37;100658.09;;;18.53;99.01
81835;BME280;71272;52.166;4.498;2023-07-28T06:40:05;100658.47;;;18.64;99.30
81835;BME280;71272;52.166;4.498;2023-07-28T06:42:32;100660.19;;;18.62;98.91
81835;BME280;71272;52.166;4.498;2023-07-28T06:44:57;100657.16;;;18.56;98.69
81835;BME280;71272;52.166;4.498;2023-07-28T06:47:23;100657.81;;;18.60;98.76
81835;BME280;71272;52.166;4.498;2023-07-28T06:49:48;100666.16;;;18.77;98.89
81835;BME280;71272;52.166;4.498;2023-07-28T06:52:13;100672.06;;;18.82;98.45
81835;BME280;71272;52.166;4.498;2023-07-28T06:54:39;100678.72;;;18.89;97.97
81835;BME280;71272;52.166;4.498;2023-07-28T06:57:04;100678.91;;;18.94;98.06
81835;BME280;71272;52.166;4.498;2023-07-28T06:59:32;100679.53;;;18.98;97.57
81835;BME280;71272;52.166;4.498;2023-07-28T07:01:57;100682.84;;;18.97;97.49
81835;BME280;71272;52.166;4.498;2023-07-28T07:04:22;100689.69;;;19.08;96.84
81835;BME280;71272;52.166;4.498;2023-07-28T07:06:48;100688.94;;;19.17;96.56
81835;BME280;71272;52.166;4.498;2023-07-28T07:09:13;100678.38;;;19.18;96.29
81835;BME280;71272;52.166;4.498;2023-07-28T07:11:41;100683.94;;;19.21;96.26
81835;BME280;71272;52.166;4.498;2023-07-28T07:14:06;100682.50;;;19.26;96.15
81835;BME280;71272;52.166;4.498;2023-07-28T07:16:32;100686.19;;;19.36;95.26
81835;BME280;71272;52.166;4.498;2023-07-28T07:18:58;100688.31;;;19.54;94.28
81835;BME280;71272;52.166;4.498;2023-07-28T07:21:23;100697.50;;;19.58;94.23
81835;BME280;71272;52.166;4.498;2023-07-28T07:23:49;100702.56;;;19.63;94.07
81835;BME280;71272;52.166;4.498;2023-07-28T07:26:14;100702.00;;;19.77;94.26
81835;BME280;71272;52.166;4.498;2023-07-28T07:28:39;100705.63;;;19.68;93.00
81835;BME280;71272;52.166;4.498;2023-07-28T07:31:14;100705.38;;;19.54;93.78
81835;BME280;71272;52.166;4.498;2023-07-28T07:33:40;100702.53;;;19.54;94.16
81835;BME280;71272;52.166;4.498;2023-07-28T07:36:05;100705.38;;;19.54;93.91
81835;BME280;71272;52.166;4.498;2023-07-28T07:38:31;100709.19;;;19.60;93.54
81835;BME280;71272;52.166;4.498;2023-07-28T07:40:56;100703.16;;;19.89;93.25
81835;BME280;71272;52.166;4.498;2023-07-28T07:43:21;100701.75;;;20.12;90.30
81835;BME280;71272;52.166;4.498;2023-07-28T07:45:47;100704.75;;;20.08;89.82
81835;BME280;71272;52.166;4.498;2023-07-28T07:48:15;100712.84;;;20.28;89.36
81835;BME280;71272;52.166;4.498;2023-07-28T07:50:40;100715.03;;;20.89;87.36
81835;BME280;71272;52.166;4.498;2023-07-28T07:53:05;100713.22;;;21.19;86.28
81835;BME280;71272;52.166;4.498;2023-07-28T07:55:31;100724.75;;;21.76;85.02
81835;BME280;71272;52.166;4.498;2023-07-28T07:57:59;100717.28;;;21.79;83.66
81835;BME280;71272;52.166;4.498;2023-07-28T08:00:24;100721.28;;;21.72;82.84
81835;BME280;71272;52.166;4.498;2023-07-28T08:02:50;100723.38;;;22.20;82.63
81835;BME280;71272;52.166;4.498;2023-07-28T08:05:15;100728.44;;;22.64;80.53
81835;BME280;71272;52.166;4.498;2023-07-28T08:07:41;100729.28;;;21.49;82.93
81835;BME280;71272;52.166;4.498;2023-07-28T08:10:07;100733.28;;;21.43;84.15
81835;BME280;71272;52.166;4.498;2023-07-28T08:12:33;100734.09;;;21.34;83.86
81835;BME280;71272;52.166;4.498;2023-07-28T08:14:58;100732.91;;;21.59;84.45
81835;BME280;71272;52.166;4.498;2023-07-28T08:17:24;100736.34;;;21.72;84.15
81835;BME280;71272;52.166;4.498;2023-07-28T08:19:49;100738.34;;;21.81;83.57
81835;BME280;71272;52.166;4.498;2023-07-28T08:22:14;100724.38;;;23.09;78.77
81835;BME280;71272;52.166;4.498;2023-07-28T08:24:40;100726.25;;;22.58;80.90
81835;BME280;71272;52.166;4.498;2023-07-28T08:27:05;100728.63;;;22.60;78.48
81835;BME280;71272;52.166;4.498;2023-07-28T08:29:31;100740.72;;;23.23;78.23
81835;BME280;71272;52.166;4.498;2023-07-28T08:31:56;100736.88;;;23.91;75.24
81835;BME280;71272;52.166;4.498;2023-07-28T08:34:22;100742.47;;;23.65;73.66
81835;BME280;71272;52.166;4.498;2023-07-28T08:36:47;100746.53;;;25.22;70.56
81835;BME280;71272;52.166;4.498;2023-07-28T08:39:12;100746.06;;;25.99;65.51
81835;BME280;71272;52.166;4.498;2023-07-28T08:41:40;100744.97;;;25.90;65.66
81835;BME280;71272;52.166;4.498;2023-07-28T08:44:07;100749.34;;;27.00;63.37
81835;BME280;71272;52.166;4.498;2023-07-28T08:46:32;100741.84;;;25.57;67.41
81835;BME280;71272;52.166;4.498;2023-07-28T08:48:59;100744.19;;;25.21;68.07
81835;BME280;71272;52.166;4.498;2023-07-28T08:51:24;100742.19;;;23.99;71.05
81835;BME280;71272;52.166;4.498;2023-07-28T08:53:50;100753.91;;;23.80;72.19
81835;BME280;71272;52.166;4.498;2023-07-28T08:56:15;100758.19;;;23.25;74.25
81835;BME280;71272;52.166;4.498;2023-07-28T08:58:40;100754.72;;;23.36;75.18
81835;BME280;71272;52.166;4.498;2023-07-28T09:01:06;100761.19;;;23.81;73.54
81835;BME280;71272;52.166;4.498;2023-07-28T09:03:31;100761.44;;;23.33;74.42
81835;BME280;71272;52.166;4.498;2023-07-28T09:06:00;100767.19;;;22.65;77.06
81835;BME280;71272;52.166;4.498;2023-07-28T09:08:26;100760.44;;;22.29;78.63
81835;BME280;71272;52.166;4.498;2023-07-28T09:10:52;100763.50;;;22.25;78.54
81835;BME280;71272;52.166;4.498;2023-07-28T09:13:19;100767.38;;;22.37;78.61
81835;BME280;71272;52.166;4.498;2023-07-28T09:15:46;100768.38;;;22.01;79.80
81835;BME280;71272;52.166;4.498;2023-07-28T09:18:15;100766.19;;;21.62;81.58
81835;BME280;71272;52.166;4.498;2023-07-28T09:20:42;100754.19;;;21.82;80.50
81835;BME280;71272;52.166;4.498;2023-07-28T09:23:09;100758.31;;;21.48;81.20
81835;BME280;71272;52.166;4.498;2023-07-28T09:25:35;100765.25;;;21.89;79.96
81835;BME280;71272;52.166;4.498;2023-07-28T09:28:01;100771.50;;;21.36;81.74
81835;BME280;71272;52.166;4.498;2023-07-28T09:30:43;100773.88;;;21.19;82.47
81835;BME280;71272;52.166;4.498;2023-07-28T09:33:09;100777.66;;;21.35;82.19
81835;BME280;71272;52.166;4.498;2023-07-28T09:35:34;100772.28;;;21.37;81.85
81835;BME280;71272;52.166;4.498;2023-07-28T09:38:11;100780.81;;;21.46;81.71
81835;BME280;71272;52.166;4.498;2023-07-28T09:40:40;100790.56;;;21.12;82.78
81835;BME280;71272;52.166;4.498;2023-07-28T09:43:05;100795.44;;;21.20;83.01
81835;BME280;71272;52.166;4.498;2023-07-28T09:45:31;100781.75;;;21.61;81.51
81835;BME280;71272;52.166;4.498;2023-07-28T09:47:58;100786.34;;;21.59;80.78
81835;BME280;71272;52.166;4.498;2023-07-28T09:50:26;100795.06;;;21.55;81.00
81835;BME280;71272;52.166;4.498;2023-07-28T09:52:54;100788.78;;;21.14;81.78
81835;BME280;71272;52.166;4.498;2023-07-28T09:55:24;100802.91;;;21.09;83.47
81835;BME280;71272;52.166;4.498;2023-07-28T09:57:52;100796.41;;;21.08;82.36
81835;BME280;71272;52.166;4.498;2023-07-28T10:00:20;100787.56;;;20.88;83.13
81835;BME280;71272;52.166;4.498;2023-07-28T10:02:47;100800.53;;;20.98;83.28
81835;BME280;71272;52.166;4.498;2023-07-28T10:05:12;100803.72;;;20.91;82.84
81835;BME280;71272;52.166;4.498;2023-07-28T10:07:41;100802.56;;;21.34;81.46
81835;BME280;71272;52.166;4.498;2023-07-28T10:10:08;100800.50;;;21.86;79.68
81835;BME280;71272;52.166;4.498;2023-07-28T10:12:51;100792.50;;;21.66;80.24
81835;BME280;71272;52.166;4.498;2023-07-28T10:15:20;100796.66;;;22.71;77.21
81835;BME280;71272;52.166;4.498;2023-07-28T10:17:49;100798.00;;;22.99;75.93
81835;BME280;71272;52.166;4.498;2023-07-28T10:23:11;100788.56;;;22.69;75.74
81835;BME280;71272;52.166;4.498;2023-07-28T10:25:38;100799.84;;;22.25;77.96
81835;BME280;71272;52.166;4.498;2023-07-28T10:28:24;100801.84;;;22.00;78.78
81835;BME280;71272;52.166;4.498;2023-07-28T10:30:55;100795.34;;;23.11;74.86
81835;BME280;71272;52.166;4.498;2023-07-28T10:33:28;100810.94;;;23.54;72.97
81835;BME280;71272;52.166;4.498;2023-07-28T10:35:54;100813.34;;;23.26;73.24
81835;BME280;71272;52.166;4.498;2023-07-28T10:38:33;100816.06;;;23.65;72.19
81835;BME280;71272;52.166;4.498;2023-07-28T10:41:17;100811.53;;;22.75;74.41
81835;BME280;71272;52.166;4.498;2023-07-28T10:43:44;100804.84;;;22.78;75.68
81835;BME280;71272;52.166;4.498;2023-07-28T10:46:14;100819.13;;;23.91;72.66
81835;BME280;71272;52.166;4.498;2023-07-28T10:48:45;100816.88;;;24.92;68.85
81835;BME280;71272;52.166;4.498;2023-07-28T10:51:11;100817.00;;;24.83;69.06
81835;BME280;71272;52.166;4.498;2023-07-28T10:53:38;100817.44;;;24.96;67.15
81835;BME280;71272;52.166;4.498;2023-07-28T10:56:03;100822.78;;;25.29;66.28
81835;BME280;71272;52.166;4.498;2023-07-28T10:58:31;100828.13;;;25.74;66.19
81835;BME280;71272;52.166;4.498;2023-07-28T11:00:58;100834.22;;;25.55;65.40
81835;BME280;71272;52.166;4.498;2023-07-28T11:03:23;100829.19;;;24.98;65.90
81835;BME280;71272;52.166;4.498;2023-07-28T11:05:49;100823.41;;;24.51;68.66
81835;BME280;71272;52.166;4.498;2023-07-28T11:08:16;100832.75;;;24.67;67.58
81835;BME280;71272;52.166;4.498;2023-07-28T11:10:41;100834.06;;;23.80;69.90
81835;BME280;71272;52.166;4.498;2023-07-28T11:13:08;100831.38;;;22.78;74.21
81835;BME280;71272;52.166;4.498;2023-07-28T11:15:33;100833.75;;;22.80;75.17
81835;BME280;71272;52.166;4.498;2023-07-28T11:17:59;100837.94;;;23.77;72.02
81835;BME280;71272;52.166;4.498;2023-07-28T11:20:26;100837.03;;;24.21;69.60
81835;BME280;71272;52.166;4.498;2023-07-28T11:22:55;100846.56;;;24.89;68.81
81835;BME280;71272;52.166;4.498;2023-07-28T11:25:22;100825.88;;;24.23;68.87
81835;BME280;71272;52.166;4.498;2023-07-28T11:27:49;100839.97;;;24.62;68.06
81835;BME280;71272;52.166;4.498;2023-07-28T11:30:16;100841.38;;;25.13;66.32
81835;BME280;71272;52.166;4.498;2023-07-28T11:32:43;100839.81;;;25.38;65.82
81835;BME280;71272;52.166;4.498;2023-07-28T11:35:10;100837.31;;;24.99;66.46
81835;BME280;71272;52.166;4.498;2023-07-28T11:37:37;100839.84;;;24.51;68.68
81835;BME280;71272;52.166;4.498;2023-07-28T11:40:05;100849.06;;;24.25;69.24
81835;BME280;71272;52.166;4.498;2023-07-28T11:42:40;100842.84;;;23.91;69.45
81835;BME280;71272;52.166;4.498;2023-07-28T11:45:07;100843.19;;;24.49;70.00
81835;BME280;71272;52.166;4.498;2023-07-28T11:47:33;100842.59;;;25.07;66.30
81835;BME280;71272;52.166;4.498;2023-07-28T11:49:59;100858.66;;;25.71;66.10
81835;BME280;71272;52.166;4.498;2023-07-28T11:52:36;100848.38;;;25.12;66.36
81835;BME280;71272;52.166;4.498;2023-07-28T11:55:04;100840.72;;;25.24;65.46
81835;BME280;71272;52.166;4.498;2023-07-28T11:57:30;100844.84;;;25.75;64.87
81835;BME280;71272;52.166;4.498;2023-07-28T11:59:59;100850.56;;;24.97;66.79
81835;BME280;71272;52.166;4.498;2023-07-28T12:02:31;100835.97;;;24.54;68.07
81835;BME280;71272;52.166;4.498;2023-07-28T12:04:58;100837.41;;;23.93;69.13
81835;BME280;71272;52.166;4.498;2023-07-28T12:07:30;100844.94;;;24.26;68.05
81835;BME280;71272;52.166;4.498;2023-07-28T12:09:56;100835.72;;;24.02;67.85
81835;BME280;71272;52.166;4.498;2023-07-28T12:12:26;100855.72;;;24.17;67.36
81835;BME280;71272;52.166;4.498;2023-07-28T12:14:52;100844.41;;;23.48;69.84
81835;BME280;71272;52.166;4.498;2023-07-28T12:17:18;100851.88;;;23.01;72.00
81835;BME280;71272;52.166;4.498;2023-07-28T12:20:03;100847.38;;;23.54;71.03
81835;BME280;71272;52.166;4.498;2023-07-28T12:22:44;100851.44;;;23.91;69.89
81835;BME280;71272;52.166;4.498;2023-07-28T12:25:11;100839.97;;;24.27;68.72
81835;BME280;71272;52.166;4.498;2023-07-28T12:27:37;100855.75;;;24.72;66.70
81835;BME280;71272;52.166;4.498;2023-07-28T12:30:03;100865.16;;;24.37;67.26
81835;BME280;71272;52.166;4.498;2023-07-28T12:32:28;100860.78;;;24.77;66.73
81835;BME280;71272;52.166;4.498;2023-07-28T12:34:54;100857.31;;;24.73;66.37
81835;BME280;71272;52.166;4.498;2023-07-28T12:37:20;100853.16;;;24.54;67.36
81835;BME280;71272;52.166;4.498;2023-07-28T12:39:46;100860.97;;;24.03;69.59
81835;BME280;71272;52.166;4.498;2023-07-28T12:42:12;100864.13;;;24.20;68.89
81835;BME280;71272;52.166;4.498;2023-07-28T12:44:38;100876.09;;;23.59;70.80